sensor_id;sensor_type;location;lat;lon;timestamp;P1;durP1;ratioP1;P2;durP2;ratioP2
39502;SDS011;26970;49.900;10.774;2024-02-16T00:01:04;5.97;;;4.05;;
39502;SDS011;26970;49.900;10.774;2024-02-16T00:03:30;8.93;;;4.00;;
39502;SDS011;26970;49.900;10.774;2024-02-16T00:05:56;5.75;;;4.15;;
39502;SDS011;26970;49.900;10.774;2024-02-16T00:08:21;5.38;;;3.70;;
39502;SDS011;26970;49.900;10.774;2024-02-16T00:10:47;8.65;;;4.28;;
39502;SDS011;26970;49.900;10.774;2024-02-16T00:13:13;7.10;;;4.13;;
39502;SDS011;26970;49.900;10.774;2024-02-16T00:15:39;7.82;;;3.83;;
39502;SDS011;26970;49.900;10.774;2024-02-16T00:18:05;7.60;;;3.80;;
39502;SDS011;26970;49.900;10.774;2024-02-16T00:20:31;7.80;;;4.30;;
39502;SDS011;26970;49.900;10.774;2024-02-16T00:22:57;6.07;;;3.78;;
39502;SDS011;26970;49.900;10.774;2024-02-16T00:25:23;8.80;;;3.72;;
39502;SDS011;26970;49.900;10.774;2024-02-16T00:27:48;10.90;;;3.90;;
39502;SDS011;26970;49.900;10.774;2024-02-16T00:30:14;9.90;;;3.88;;
39502;SDS011;26970;49.900;10.774;2024-02-16T00:32:42;7.85;;;3.55;;
39502;SDS011;26970;49.900;10.774;2024-02-16T00:35:10;6.82;;;3.90;;
39502;SDS011;26970;49.900;10.774;2024-02-16T00:37:41;6.93;;;3.75;;
39502;SDS011;26970;49.900;10.774;2024-02-16T00:40:07;6.85;;;3.90;;
39502;SDS011;26970;49.900;10.774;2024-02-16T00:42:33;7.25;;;4.00;;
39502;SDS011;26970;49.900;10.774;2024-02-16T00:44:59;6.22;;;3.67;;
39502;SDS011;26970;49.900;10.774;2024-02-16T00:47:25;8.13;;;4.30;;
39502;SDS011;26970;49.900;10.774;2024-02-16T00:49:52;7.57;;;3.97;;
39502;SDS011;26970;49.900;10.774;2024-02-16T00:52:17;6.88;;;4.00;;
39502;SDS011;26970;49.900;10.774;2024-02-16T00:54:43;7.20;;;3.88;;
39502;SDS011;26970;49.900;10.774;2024-02-16T00:57:08;6.57;;;3.60;;
39502;SDS011;26970;49.900;10.774;2024-02-16T00:59:34;8.23;;;3.92;;
39502;SDS011;26970;49.900;10.774;2024-02-16T01:02:00;8.40;;;3.58;;
39502;SDS011;26970;49.900;10.774;2024-02-16T01:04:25;6.95;;;3.88;;
39502;SDS011;26970;49.900;10.774;2024-02-16T01:06:51;8.85;;;3.80;;
39502;SDS011;26970;49.900;10.774;2024-02-16T01:09:16;7.20;;;3.80;;
39502;SDS011;26970;49.900;10.774;2024-02-16T01:11:42;5.72;;;3.45;;
39502;SDS011;26970;49.900;10.774;2024-02-16T01:14:08;9.63;;;4.30;;
39502;SDS011;26970;49.900;10.774;2024-02-16T01:16:33;5.63;;;3.33;;
39502;SDS011;26970;49.900;10.774;2024-02-16T01:19:00;6.50;;;3.90;;
39502;SDS011;26970;49.900;10.774;2024-02-16T01:21:26;5.50;;;3.60;;
39502;SDS011;26970;49.900;10.774;2024-02-16T01:23:52;5.65;;;3.28;;
39502;SDS011;26970;49.900;10.774;2024-02-16T01:26:17;6.10;;;3.40;;
39502;SDS011;26970;49.900;10.774;2024-02-16T01:28:43;5.32;;;3.50;;
39502;SDS011;26970;49.900;10.774;2024-02-16T01:31:09;4.60;;;2.60;;
39502;SDS011;26970;49.900;10.774;2024-02-16T01:33:35;8.15;;;3.33;;
39502;SDS011;26970;49.900;10.774;2024-02-16T01:36:02;6.97;;;3.80;;
39502;SDS011;26970;49.900;10.774;2024-02-16T01:38:28;6.50;;;3.22;;
39502;SDS011;26970;49.900;10.774;2024-02-16T01:40:53;5.80;;;3.30;;
39502;SDS011;26970;49.900;10.774;2024-02-16T01:43:22;6.63;;;3.38;;
39502;SDS011;26970;49.900;10.774;2024-02-16T01:45:47;7.38;;;3.90;;
39502;SDS011;26970;49.900;10.774;2024-02-16T01:48:13;6.32;;;3.50;;
39502;SDS011;26970;49.900;10.774;2024-02-16T01:50:42;5.35;;;3.40;;
39502;SDS011;26970;49.900;10.774;2024-02-16T01:53:08;4.85;;;3.35;;
39502;SDS011;26970;49.900;10.774;2024-02-16T01:55:35;6.93;;;3.80;;
39502;SDS011;26970;49.900;10.774;2024-02-16T01:58:00;5.03;;;3.35;;
39502;SDS011;26970;49.900;10.774;2024-02-16T02:00:26;6.68;;;3.70;;
39502;SDS011;26970;49.900;10.774;2024-02-16T02:02:52;6.15;;;3.70;;
39502;SDS011;26970;49.900;10.774;2024-02-16T02:05:18;7.00;;;4.50;;
39502;SDS011;26970;49.900;10.774;2024-02-16T02:07:43;6.60;;;3.13;;
39502;SDS011;26970;49.900;10.774;2024-02-16T02:10:09;10.25;;;3.50;;
39502;SDS011;26970;49.900;10.774;2024-02-16T02:12:38;7.07;;;3.05;;
39502;SDS011;26970;49.900;10.774;2024-02-16T02:15:04;6.82;;;3.53;;
39502;SDS011;26970;49.900;10.774;2024-02-16T02:17:30;7.93;;;3.20;;
39502;SDS011;26970;49.900;10.774;2024-02-16T02:19:55;6.00;;;3.45;;
39502;SDS011;26970;49.900;10.774;2024-02-16T02:22:21;5.40;;;2.90;;
39502;SDS011;26970;49.900;10.774;2024-02-16T02:24:47;4.88;;;2.83;;
39502;SDS011;26970;49.900;10.774;2024-02-16T02:27:16;5.97;;;3.13;;
39502;SDS011;26970;49.900;10.774;2024-02-16T02:29:42;4.38;;;2.65;;
39502;SDS011;26970;49.900;10.774;2024-02-16T02:32:08;5.28;;;2.72;;
39502;SDS011;26970;49.900;10.774;2024-02-16T02:34:34;6.40;;;2.78;;
39502;SDS011;26970;49.900;10.774;2024-02-16T02:37:01;5.55;;;2.80;;
39502;SDS011;26970;49.900;10.774;2024-02-16T02:39:29;6.13;;;3.22;;
39502;SDS011;26970;49.900;10.774;2024-02-16T02:41:54;4.90;;;3.10;;
39502;SDS011;26970;49.900;10.774;2024-02-16T02:44:20;6.68;;;3.25;;
39502;SDS011;26970;49.900;10.774;2024-02-16T02:46:45;6.45;;;3.55;;
39502;SDS011;26970;49.900;10.774;2024-02-16T02:49:11;6.80;;;3.10;;
39502;SDS011;26970;49.900;10.774;2024-02-16T02:51:36;6.38;;;3.17;;
39502;SDS011;26970;49.900;10.774;2024-02-16T02:54:02;7.30;;;3.47;;
39502;SDS011;26970;49.900;10.774;2024-02-16T02:56:27;5.82;;;3.63;;
39502;SDS011;26970;49.900;10.774;2024-02-16T02:58:53;6.65;;;3.00;;
39502;SDS011;26970;49.900;10.774;2024-02-16T03:01:18;5.93;;;3.10;;
39502;SDS011;26970;49.900;10.774;2024-02-16T03:03:47;7.13;;;3.30;;
39502;SDS011;26970;49.900;10.774;2024-02-16T03:06:13;7.25;;;3.00;;
39502;SDS011;26970;49.900;10.774;2024-02-16T03:08:42;4.95;;;2.90;;
39502;SDS011;26970;49.900;10.774;2024-02-16T03:11:07;3.67;;;2.50;;
39502;SDS011;26970;49.900;10.774;2024-02-16T03:13:33;3.78;;;2.53;;
39502;SDS011;26970;49.900;10.774;2024-02-16T03:15:58;5.90;;;3.00;;
39502;SDS011;26970;49.900;10.774;2024-02-16T03:18:24;6.90;;;2.88;;
39502;SDS011;26970;49.900;10.774;2024-02-16T03:20:50;8.18;;;3.08;;
39502;SDS011;26970;49.900;10.774;2024-02-16T03:23:15;6.32;;;3.17;;
39502;SDS011;26970;49.900;10.774;2024-02-16T03:25:41;4.47;;;2.60;;
39502;SDS011;26970;49.900;10.774;2024-02-16T03:28:11;4.30;;;2.97;;
39502;SDS011;26970;49.900;10.774;2024-02-16T03:30:38;5.78;;;3.00;;
39502;SDS011;26970;49.900;10.774;2024-02-16T03:33:04;5.00;;;2.88;;
39502;SDS011;26970;49.900;10.774;2024-02-16T03:35:29;5.68;;;3.28;;
39502;SDS011;26970;49.900;10.774;2024-02-16T03:37:55;5.82;;;3.20;;
39502;SDS011;26970;49.900;10.774;2024-02-16T03:40:22;4.45;;;2.75;;
39502;SDS011;26970;49.900;10.774;2024-02-16T03:42:49;4.57;;;2.97;;
39502;SDS011;26970;49.900;10.774;2024-02-16T03:45:18;5.32;;;3.45;;
39502;SDS011;26970;49.900;10.774;2024-02-16T03:47:44;5.32;;;2.63;;
39502;SDS011;26970;49.900;10.774;2024-02-16T03:50:09;9.30;;;3.03;;
39502;SDS011;26970;49.900;10.774;2024-02-16T03:52:36;5.55;;;2.85;;
39502;SDS011;26970;49.900;10.774;2024-02-16T03:55:01;5.57;;;2.75;;
39502;SDS011;26970;49.900;10.774;2024-02-16T03:57:27;4.60;;;2.72;;
39502;SDS011;26970;49.900;10.774;2024-02-16T03:59:55;3.85;;;2.33;;
39502;SDS011;26970;49.900;10.774;2024-02-16T04:02:20;3.88;;;2.45;;
39502;SDS011;26970;49.900;10.774;2024-02-16T04:04:46;4.55;;;2.30;;
39502;SDS011;26970;49.900;10.774;2024-02-16T04:07:11;5.60;;;2.55;;
39502;SDS011;26970;49.900;10.774;2024-02-16T04:09:37;6.32;;;2.50;;
39502;SDS011;26970;49.900;10.774;2024-02-16T04:12:02;7.07;;;2.55;;
39502;SDS011;26970;49.900;10.774;2024-02-16T04:14:28;5.00;;;2.95;;
39502;SDS011;26970;49.900;10.774;2024-02-16T04:16:57;4.57;;;2.60;;
39502;SDS011;26970;49.900;10.774;2024-02-16T04:19:23;3.90;;;2.42;;
39502;SDS011;26970;49.900;10.774;2024-02-16T04:21:52;5.93;;;2.65;;
39502;SDS011;26970;49.900;10.774;2024-02-16T04:24:17;4.28;;;2.10;;
39502;SDS011;26970;49.900;10.774;2024-02-16T04:26:43;3.72;;;2.15;;
39502;SDS011;26970;49.900;10.774;2024-02-16T04:29:09;3.67;;;2.20;;
39502;SDS011;26970;49.900;10.774;2024-02-16T04:31:38;4.93;;;2.50;;
39502;SDS011;26970;49.900;10.774;2024-02-16T04:34:04;3.25;;;2.13;;
39502;SDS011;26970;49.900;10.774;2024-02-16T04:36:30;6.20;;;2.25;;
39502;SDS011;26970;49.900;10.774;2024-02-16T04:38:55;6.18;;;2.05;;
39502;SDS011;26970;49.900;10.774;2024-02-16T04:41:21;4.22;;;2.40;;
39502;SDS011;26970;49.900;10.774;2024-02-16T04:43:46;3.53;;;2.25;;
39502;SDS011;26970;49.900;10.774;2024-02-16T04:46:15;7.63;;;2.38;;
39502;SDS011;26970;49.900;10.774;2024-02-16T04:48:41;4.53;;;2.47;;
39502;SDS011;26970;49.900;10.774;2024-02-16T04:51:07;5.93;;;2.58;;
39502;SDS011;26970;49.900;10.774;2024-02-16T04:53:32;4.07;;;2.25;;
39502;SDS011;26970;49.900;10.774;2024-02-16T04:55:58;4.30;;;2.35;;
39502;SDS011;26970;49.900;10.774;2024-02-16T04:58:23;7.65;;;2.47;;
39502;SDS011;26970;49.900;10.774;2024-02-16T05:00:49;7.45;;;1.98;;
39502;SDS011;26970;49.900;10.774;2024-02-16T05:03:14;5.38;;;2.47;;
39502;SDS011;26970;49.900;10.774;2024-02-16T05:05:40;10.60;;;2.40;;
39502;SDS011;26970;49.900;10.774;2024-02-16T05:08:06;3.17;;;2.20;;
39502;SDS011;26970;49.900;10.774;2024-02-16T05:10:31;12.95;;;3.40;;
39502;SDS011;26970;49.900;10.774;2024-02-16T05:12:57;7.32;;;2.70;;
39502;SDS011;26970;49.900;10.774;2024-02-16T05:15:23;4.63;;;2.53;;
39502;SDS011;26970;49.900;10.774;2024-02-16T05:17:49;4.45;;;2.40;;
39502;SDS011;26970;49.900;10.774;2024-02-16T05:20:14;4.15;;;2.67;;
39502;SDS011;26970;49.900;10.774;2024-02-16T05:22:43;5.90;;;2.40;;
39502;SDS011;26970;49.900;10.774;2024-02-16T05:25:11;4.15;;;2.30;;
39502;SDS011;26970;49.900;10.774;2024-02-16T05:27:36;4.47;;;2.50;;
39502;SDS011;26970;49.900;10.774;2024-02-16T05:30:02;5.30;;;3.10;;
39502;SDS011;26970;49.900;10.774;2024-02-16T05:32:32;13.68;;;6.63;;
39502;SDS011;26970;49.900;10.774;2024-02-16T05:35:01;11.48;;;5.22;;
39502;SDS011;26970;49.900;10.774;2024-02-16T05:37:36;4.10;;;2.90;;
39502;SDS011;26970;49.900;10.774;2024-02-16T05:40:16;9.10;;;2.80;;
39502;SDS011;26970;49.900;10.774;2024-02-16T05:42:53;5.53;;;3.15;;
39502;SDS011;26970;49.900;10.774;2024-02-16T05:45:19;5.43;;;3.25;;
39502;SDS011;26970;49.900;10.774;2024-02-16T05:47:48;6.63;;;4.28;;
39502;SDS011;26970;49.900;10.774;2024-02-16T05:50:14;5.75;;;3.83;;
39502;SDS011;26970;49.900;10.774;2024-02-16T05:52:40;5.78;;;3.97;;
39502;SDS011;26970;49.900;10.774;2024-02-16T05:55:07;6.13;;;4.25;;
39502;SDS011;26970;49.900;10.774;2024-02-16T05:57:33;6.05;;;3.03;;
39502;SDS011;26970;49.900;10.774;2024-02-16T06:00:00;6.72;;;3.30;;
39502;SDS011;26970;49.900;10.774;2024-02-16T06:02:26;5.57;;;3.10;;
39502;SDS011;26970;49.900;10.774;2024-02-16T06:04:52;5.10;;;3.45;;
39502;SDS011;26970;49.900;10.774;2024-02-16T06:07:18;6.55;;;5.22;;
39502;SDS011;26970;49.900;10.774;2024-02-16T06:09:44;7.30;;;3.83;;
39502;SDS011;26970;49.900;10.774;2024-02-16T06:12:09;4.97;;;3.28;;
39502;SDS011;26970;49.900;10.774;2024-02-16T06:14:36;6.95;;;3.28;;
39502;SDS011;26970;49.900;10.774;2024-02-16T06:17:02;5.78;;;3.25;;
39502;SDS011;26970;49.900;10.774;2024-02-16T06:19:43;4.85;;;3.10;;
39502;SDS011;26970;49.900;10.774;2024-02-16T06:22:09;5.25;;;3.17;;
39502;SDS011;26970;49.900;10.774;2024-02-16T06:24:35;4.63;;;3.28;;
39502;SDS011;26970;49.900;10.774;2024-02-16T06:27:01;5.93;;;3.72;;
39502;SDS011;26970;49.900;10.774;2024-02-16T06:29:28;6.60;;;3.60;;
39502;SDS011;26970;49.900;10.774;2024-02-16T06:31:55;6.25;;;3.97;;
39502;SDS011;26970;49.900;10.774;2024-02-16T06:34:21;5.63;;;3.75;;
39502;SDS011;26970;49.900;10.774;2024-02-16T06:36:46;5.72;;;3.40;;
39502;SDS011;26970;49.900;10.774;2024-02-16T06:39:12;6.45;;;4.05;;
39502;SDS011;26970;49.900;10.774;2024-02-16T06:41:44;8.35;;;3.65;;
39502;SDS011;26970;49.900;10.774;2024-02-16T06:44:13;7.25;;;4.25;;
39502;SDS011;26970;49.900;10.774;2024-02-16T06:46:39;7.63;;;3.92;;
39502;SDS011;26970;49.900;10.774;2024-02-16T06:49:05;8.35;;;4.63;;
39502;SDS011;26970;49.900;10.774;2024-02-16T06:51:31;7.57;;;3.88;;
39502;SDS011;26970;49.900;10.774;2024-02-16T06:53:56;9.25;;;5.03;;
39502;SDS011;26970;49.900;10.774;2024-02-16T06:56:22;7.72;;;4.57;;
39502;SDS011;26970;49.900;10.774;2024-02-16T06:58:48;6.78;;;4.07;;
39502;SDS011;26970;49.900;10.774;2024-02-16T07:01:13;7.22;;;4.45;;
39502;SDS011;26970;49.900;10.774;2024-02-16T07:03:39;7.57;;;4.05;;
39502;SDS011;26970;49.900;10.774;2024-02-16T07:06:05;9.80;;;4.45;;
39502;SDS011;26970;49.900;10.774;2024-02-16T07:08:35;8.38;;;4.10;;
39502;SDS011;26970;49.900;10.774;2024-02-16T07:11:01;6.97;;;4.05;;
39502;SDS011;26970;49.900;10.774;2024-02-16T07:13:28;8.40;;;4.32;;
39502;SDS011;26970;49.900;10.774;2024-02-16T07:15:54;9.95;;;4.47;;
39502;SDS011;26970;49.900;10.774;2024-02-16T07:18:19;6.50;;;4.45;;
39502;SDS011;26970;49.900;10.774;2024-02-16T07:20:46;8.70;;;4.63;;
39502;SDS011;26970;49.900;10.774;2024-02-16T07:23:12;7.38;;;4.38;;
39502;SDS011;26970;49.900;10.774;2024-02-16T07:25:40;9.88;;;4.50;;
39502;SDS011;26970;49.900;10.774;2024-02-16T07:28:08;7.10;;;4.15;;
39502;SDS011;26970;49.900;10.774;2024-02-16T07:30:34;7.47;;;4.43;;
39502;SDS011;26970;49.900;10.774;2024-02-16T07:33:03;12.43;;;4.90;;
39502;SDS011;26970;49.900;10.774;2024-02-16T07:35:34;7.35;;;4.85;;
39502;SDS011;26970;49.900;10.774;2024-02-16T07:38:01;12.18;;;5.10;;
39502;SDS011;26970;49.900;10.774;2024-02-16T07:40:27;9.30;;;5.07;;
39502;SDS011;26970;49.900;10.774;2024-02-16T07:42:53;8.43;;;5.22;;
39502;SDS011;26970;49.900;10.774;2024-02-16T07:45:18;9.48;;;5.07;;
39502;SDS011;26970;49.900;10.774;2024-02-16T07:47:45;9.40;;;5.35;;
39502;SDS011;26970;49.900;10.774;2024-02-16T07:50:11;8.57;;;5.38;;
39502;SDS011;26970;49.900;10.774;2024-02-16T07:52:37;8.13;;;5.05;;
39502;SDS011;26970;49.900;10.774;2024-02-16T07:55:04;10.18;;;5.40;;
39502;SDS011;26970;49.900;10.774;2024-02-16T07:57:30;8.88;;;5.63;;
39502;SDS011;26970;49.900;10.774;2024-02-16T07:59:56;8.98;;;5.32;;
39502;SDS011;26970;49.900;10.774;2024-02-16T08:02:21;9.82;;;5.47;;
39502;SDS011;26970;49.900;10.774;2024-02-16T08:04:47;8.57;;;4.88;;
39502;SDS011;26970;49.900;10.774;2024-02-16T08:07:13;11.77;;;5.55;;
39502;SDS011;26970;49.900;10.774;2024-02-16T08:09:39;8.80;;;5.28;;
39502;SDS011;26970;49.900;10.774;2024-02-16T08:12:08;10.77;;;5.80;;
39502;SDS011;26970;49.900;10.774;2024-02-16T08:14:33;10.90;;;5.97;;
39502;SDS011;26970;49.900;10.774;2024-02-16T08:16:59;10.23;;;5.57;;
39502;SDS011;26970;49.900;10.774;2024-02-16T08:19:26;8.98;;;6.18;;
39502;SDS011;26970;49.900;10.774;2024-02-16T08:21:58;7.93;;;5.60;;
39502;SDS011;26970;49.900;10.774;2024-02-16T08:24:24;9.43;;;5.50;;
39502;SDS011;26970;49.900;10.774;2024-02-16T08:26:50;9.55;;;5.60;;
39502;SDS011;26970;49.900;10.774;2024-02-16T08:29:16;9.27;;;5.05;;
39502;SDS011;26970;49.900;10.774;2024-02-16T08:31:41;9.38;;;5.43;;
39502;SDS011;26970;49.900;10.774;2024-02-16T08:34:09;10.48;;;5.70;;
39502;SDS011;26970;49.900;10.774;2024-02-16T08:36:35;8.38;;;4.95;;
39502;SDS011;26970;49.900;10.774;2024-02-16T08:39:01;8.77;;;5.07;;
39502;SDS011;26970;49.900;10.774;2024-02-16T08:41:26;8.63;;;5.10;;
39502;SDS011;26970;49.900;10.774;2024-02-16T08:43:52;10.13;;;5.60;;
39502;SDS011;26970;49.900;10.774;2024-02-16T08:46:17;8.43;;;5.57;;
39502;SDS011;26970;49.900;10.774;2024-02-16T08:48:47;8.73;;;5.32;;
39502;SDS011;26970;49.900;10.774;2024-02-16T08:51:12;11.35;;;5.57;;
39502;SDS011;26970;49.900;10.774;2024-02-16T08:53:39;9.65;;;5.63;;
39502;SDS011;26970;49.900;10.774;2024-02-16T08:56:08;11.50;;;5.75;;
39502;SDS011;26970;49.900;10.774;2024-02-16T08:58:36;8.00;;;5.15;;
39502;SDS011;26970;49.900;10.774;2024-02-16T09:01:02;9.35;;;5.78;;
39502;SDS011;26970;49.900;10.774;2024-02-16T09:03:27;8.48;;;5.57;;
39502;SDS011;26970;49.900;10.774;2024-02-16T09:05:53;9.48;;;5.47;;
39502;SDS011;26970;49.900;10.774;2024-02-16T09:08:18;8.43;;;5.13;;
39502;SDS011;26970;49.900;10.774;2024-02-16T09:10:44;11.50;;;5.90;;
39502;SDS011;26970;49.900;10.774;2024-02-16T09:13:10;9.02;;;5.78;;
39502;SDS011;26970;49.900;10.774;2024-02-16T09:15:35;14.15;;;6.40;;
39502;SDS011;26970;49.900;10.774;2024-02-16T09:18:01;10.80;;;6.47;;
39502;SDS011;26970;49.900;10.774;2024-02-16T09:20:28;10.18;;;6.03;;
39502;SDS011;26970;49.900;10.774;2024-02-16T09:22:53;10.73;;;6.07;;
39502;SDS011;26970;49.900;10.774;2024-02-16T09:25:19;12.95;;;6.10;;
39502;SDS011;26970;49.900;10.774;2024-02-16T09:27:46;9.57;;;5.80;;
39502;SDS011;26970;49.900;10.774;2024-02-16T09:30:12;9.60;;;5.65;;
39502;SDS011;26970;49.900;10.774;2024-02-16T09:32:40;8.90;;;6.00;;
39502;SDS011;26970;49.900;10.774;2024-02-16T09:35:07;10.35;;;6.38;;
39502;SDS011;26970;49.900;10.774;2024-02-16T09:37:34;10.18;;;5.82;;
39502;SDS011;26970;49.900;10.774;2024-02-16T09:40:00;8.48;;;6.03;;
39502;SDS011;26970;49.900;10.774;2024-02-16T09:42:28;9.32;;;5.65;;
39502;SDS011;26970;49.900;10.774;2024-02-16T09:44:54;11.95;;;6.47;;
39502;SDS011;26970;49.900;10.774;2024-02-16T09:47:20;10.48;;;6.07;;
39502;SDS011;26970;49.900;10.774;2024-02-16T09:49:48;8.02;;;5.10;;
39502;SDS011;26970;49.900;10.774;2024-02-16T09:52:14;8.27;;;5.53;;
39502;SDS011;26970;49.900;10.774;2024-02-16T09:54:39;9.05;;;6.03;;
39502;SDS011;26970;49.900;10.774;2024-02-16T09:57:05;9.88;;;5.75;;
39502;SDS011;26970;49.900;10.774;2024-02-16T09:59:31;9.85;;;6.18;;
39502;SDS011;26970;49.900;10.774;2024-02-16T10:02:03;9.27;;;6.15;;
39502;SDS011;26970;49.900;10.774;2024-02-16T10:04:32;23.55;;;6.43;;
39502;SDS011;26970;49.900;10.774;2024-02-16T10:06:58;12.27;;;6.43;;
39502;SDS011;26970;49.900;10.774;2024-02-16T10:11:50;9.48;;;5.90;;
39502;SDS011;26970;49.900;10.774;2024-02-16T10:14:16;13.00;;;6.30;;
39502;SDS011;26970;49.900;10.774;2024-02-16T10:16:44;11.93;;;5.88;;
39502;SDS011;26970;49.900;10.774;2024-02-16T10:19:10;13.02;;;5.88;;
39502;SDS011;26970;49.900;10.774;2024-02-16T10:21:35;10.93;;;5.30;;
39502;SDS011;26970;49.900;10.774;2024-02-16T10:24:02;9.52;;;5.07;;
39502;SDS011;26970;49.900;10.774;2024-02-16T10:26:31;10.02;;;5.22;;
39502;SDS011;26970;49.900;10.774;2024-02-16T10:28:57;8.80;;;5.38;;
39502;SDS011;26970;49.900;10.774;2024-02-16T10:31:23;10.25;;;5.80;;
39502;SDS011;26970;49.900;10.774;2024-02-16T10:34:03;8.00;;;5.07;;
39502;SDS011;26970;49.900;10.774;2024-02-16T10:36:37;9.15;;;5.70;;
39502;SDS011;26970;49.900;10.774;2024-02-16T10:39:04;10.10;;;5.85;;
39502;SDS011;26970;49.900;10.774;2024-02-16T10:41:34;9.80;;;5.10;;
39502;SDS011;26970;49.900;10.774;2024-02-16T10:44:02;8.90;;;5.95;;
39502;SDS011;26970;49.900;10.774;2024-02-16T10:46:29;8.30;;;4.90;;
39502;SDS011;26970;49.900;10.774;2024-02-16T10:48:55;9.10;;;5.72;;
39502;SDS011;26970;49.900;10.774;2024-02-16T10:51:25;9.95;;;5.38;;
39502;SDS011;26970;49.900;10.774;2024-02-16T10:53:54;7.82;;;5.38;;
39502;SDS011;26970;49.900;10.774;2024-02-16T10:56:37;7.70;;;5.10;;
39502;SDS011;26970;49.900;10.774;2024-02-16T10:59:09;8.30;;;4.82;;
39502;SDS011;26970;49.900;10.774;2024-02-16T11:01:39;9.82;;;5.30;;
39502;SDS011;26970;49.900;10.774;2024-02-16T11:04:06;8.38;;;4.97;;
39502;SDS011;26970;49.900;10.774;2024-02-16T11:09:11;7.07;;;4.38;;
39502;SDS011;26970;49.900;10.774;2024-02-16T11:12:00;8.70;;;5.07;;
39502;SDS011;26970;49.900;10.774;2024-02-16T11:17:02;9.00;;;5.25;;
39502;SDS011;26970;49.900;10.774;2024-02-16T11:19:35;9.13;;;4.95;;
39502;SDS011;26970;49.900;10.774;2024-02-16T11:22:07;9.82;;;5.05;;
39502;SDS011;26970;49.900;10.774;2024-02-16T11:24:34;9.68;;;5.10;;
39502;SDS011;26970;49.900;10.774;2024-02-16T11:27:04;9.52;;;5.03;;
39502;SDS011;26970;49.900;10.774;2024-02-16T11:29:36;9.60;;;5.25;;
39502;SDS011;26970;49.900;10.774;2024-02-16T11:32:03;7.75;;;4.47;;
39502;SDS011;26970;49.900;10.774;2024-02-16T11:34:30;9.32;;;4.63;;
39502;SDS011;26970;49.900;10.774;2024-02-16T11:36:57;8.77;;;4.85;;
39502;SDS011;26970;49.900;10.774;2024-02-16T11:39:23;7.75;;;4.57;;
39502;SDS011;26970;49.900;10.774;2024-02-16T11:42:06;7.63;;;4.85;;
39502;SDS011;26970;49.900;10.774;2024-02-16T11:44:35;9.10;;;5.10;;
39502;SDS011;26970;49.900;10.774;2024-02-16T11:47:04;7.68;;;4.63;;
39502;SDS011;26970;49.900;10.774;2024-02-16T11:49:32;8.13;;;4.43;;
39502;SDS011;26970;49.900;10.774;2024-02-16T11:52:00;7.60;;;4.10;;
39502;SDS011;26970;49.900;10.774;2024-02-16T11:54:28;7.13;;;4.57;;
39502;SDS011;26970;49.900;10.774;2024-02-16T11:56:55;8.13;;;3.80;;
39502;SDS011;26970;49.900;10.774;2024-02-16T11:59:21;7.78;;;4.50;;
39502;SDS011;26970;49.900;10.774;2024-02-16T12:04:28;6.93;;;4.30;;
39502;SDS011;26970;49.900;10.774;2024-02-16T12:06:55;9.18;;;4.45;;
39502;SDS011;26970;49.900;10.774;2024-02-16T12:09:22;6.50;;;4.30;;
39502;SDS011;26970;49.900;10.774;2024-02-16T12:11:49;7.70;;;3.92;;
39502;SDS011;26970;49.900;10.774;2024-02-16T12:14:18;6.57;;;4.10;;
39502;SDS011;26970;49.900;10.774;2024-02-16T12:16:49;6.30;;;4.03;;
39502;SDS011;26970;49.900;10.774;2024-02-16T12:19:15;8.48;;;4.15;;
39502;SDS011;26970;49.900;10.774;2024-02-16T12:21:42;7.32;;;3.85;;
39502;SDS011;26970;49.900;10.774;2024-02-16T12:24:07;7.57;;;3.95;;
39502;SDS011;26970;49.900;10.774;2024-02-16T12:26:33;8.00;;;4.13;;
39502;SDS011;26970;49.900;10.774;2024-02-16T12:28:58;8.00;;;3.90;;
39502;SDS011;26970;49.900;10.774;2024-02-16T12:31:24;5.78;;;3.97;;
39502;SDS011;26970;49.900;10.774;2024-02-16T12:33:51;6.75;;;4.15;;
39502;SDS011;26970;49.900;10.774;2024-02-16T12:36:17;6.28;;;3.92;;
39502;SDS011;26970;49.900;10.774;2024-02-16T12:38:42;8.30;;;4.20;;
39502;SDS011;26970;49.900;10.774;2024-02-16T12:41:08;7.57;;;4.32;;
39502;SDS011;26970;49.900;10.774;2024-02-16T12:43:34;6.18;;;3.78;;
39502;SDS011;26970;49.900;10.774;2024-02-16T12:45:59;6.25;;;4.20;;
39502;SDS011;26970;49.900;10.774;2024-02-16T12:48:27;6.38;;;3.83;;
39502;SDS011;26970;49.900;10.774;2024-02-16T12:50:53;8.57;;;4.38;;
39502;SDS011;26970;49.900;10.774;2024-02-16T12:53:19;6.60;;;3.85;;
39502;SDS011;26970;49.900;10.774;2024-02-16T12:55:45;7.93;;;4.20;;
39502;SDS011;26970;49.900;10.774;2024-02-16T12:58:12;8.70;;;3.92;;
39502;SDS011;26970;49.900;10.774;2024-02-16T13:00:38;8.02;;;4.22;;
39502;SDS011;26970;49.900;10.774;2024-02-16T13:03:04;5.05;;;3.60;;
39502;SDS011;26970;49.900;10.774;2024-02-16T13:05:29;7.03;;;3.70;;
39502;SDS011;26970;49.900;10.774;2024-02-16T13:07:57;10.75;;;3.70;;
39502;SDS011;26970;49.900;10.774;2024-02-16T13:10:23;7.75;;;3.65;;
39502;SDS011;26970;49.900;10.774;2024-02-16T13:12:49;6.32;;;3.65;;
39502;SDS011;26970;49.900;10.774;2024-02-16T13:15:14;7.03;;;3.72;;
39502;SDS011;26970;49.900;10.774;2024-02-16T13:17:40;6.28;;;3.65;;
39502;SDS011;26970;49.900;10.774;2024-02-16T13:20:06;7.22;;;3.83;;
39502;SDS011;26970;49.900;10.774;2024-02-16T13:22:34;5.93;;;3.20;;
39502;SDS011;26970;49.900;10.774;2024-02-16T13:25:06;7.32;;;3.78;;
39502;SDS011;26970;49.900;10.774;2024-02-16T13:27:34;6.22;;;3.33;;
39502;SDS011;26970;49.900;10.774;2024-02-16T13:30:00;5.68;;;3.47;;
39502;SDS011;26970;49.900;10.774;2024-02-16T13:32:26;6.00;;;3.35;;
39502;SDS011;26970;49.900;10.774;2024-02-16T13:34:52;7.10;;;3.47;;
39502;SDS011;26970;49.900;10.774;2024-02-16T13:37:17;5.25;;;3.40;;
39502;SDS011;26970;49.900;10.774;2024-02-16T13:39:43;5.75;;;3.35;;
39502;SDS011;26970;49.900;10.774;2024-02-16T13:42:09;8.65;;;3.50;;
39502;SDS011;26970;49.900;10.774;2024-02-16T13:44:35;9.27;;;3.85;;
39502;SDS011;26970;49.900;10.774;2024-02-16T13:47:01;8.50;;;3.88;;
39502;SDS011;26970;49.900;10.774;2024-02-16T13:49:27;5.70;;;3.40;;
39502;SDS011;26970;49.900;10.774;2024-02-16T13:51:52;5.97;;;3.50;;
39502;SDS011;26970;49.900;10.774;2024-02-16T13:54:18;6.28;;;3.22;;
39502;SDS011;26970;49.900;10.774;2024-02-16T13:56:46;5.53;;;3.00;;
39502;SDS011;26970;49.900;10.774;2024-02-16T13:59:11;8.30;;;4.18;;
39502;SDS011;26970;49.900;10.774;2024-02-16T14:01:37;5.85;;;3.80;;
39502;SDS011;26970;49.900;10.774;2024-02-16T14:04:03;6.13;;;3.22;;
39502;SDS011;26970;49.900;10.774;2024-02-16T14:06:29;5.93;;;3.50;;
39502;SDS011;26970;49.900;10.774;2024-02-16T14:08:56;5.50;;;3.53;;
39502;SDS011;26970;49.900;10.774;2024-02-16T14:11:22;6.35;;;3.50;;
39502;SDS011;26970;49.900;10.774;2024-02-16T14:13:48;5.82;;;3.88;;
39502;SDS011;26970;49.900;10.774;2024-02-16T14:16:13;10.73;;;3.47;;
39502;SDS011;26970;49.900;10.774;2024-02-16T14:18:39;7.28;;;3.58;;
39502;SDS011;26970;49.900;10.774;2024-02-16T14:21:05;5.65;;;3.40;;
39502;SDS011;26970;49.900;10.774;2024-02-16T14:23:31;5.57;;;3.50;;
39502;SDS011;26970;49.900;10.774;2024-02-16T14:25:57;6.65;;;3.80;;
39502;SDS011;26970;49.900;10.774;2024-02-16T14:28:25;6.65;;;3.53;;
39502;SDS011;26970;49.900;10.774;2024-02-16T14:30:51;8.05;;;3.88;;
39502;SDS011;26970;49.900;10.774;2024-02-16T14:33:16;6.85;;;4.10;;
39502;SDS011;26970;49.900;10.774;2024-02-16T14:35:45;5.07;;;3.10;;
39502;SDS011;26970;49.900;10.774;2024-02-16T14:38:12;6.50;;;3.60;;
39502;SDS011;26970;49.900;10.774;2024-02-16T14:40:38;5.53;;;3.08;;